Weather Data

Pearl Creek Farm: 8878 N Farm Road 75, Walnut Grove MO 65770

<== Previous Day (Wednesday 15 Jan 2020) | Next Day (Friday 17 Jan 2020) ==>

Summary Precipitation Data For Thursday 16 January 2020

ElementValueUnits
Precipitation0"
Notes(none)
SourcePearl Creek Farm

Summary Temperature Data For Thursday 16 January 2020

ElementValueUnits
High Temperature38 oF
Low Temperature25 oF
Average Temperature33 oF
High Humidity92 %
Low Humidity44 %
Average Humidity69 %
SourceSpringfield-Branson National Airport (SGF)

Detail Temperature Data For Thursday 16 January 2020

Date / TimeTemp (F)RH (%)Dew Pt (F)Report Date / TimeSource
2020-01-16 00:52:00 33 92 31.0 2021-01-15 18:54:53.841352 Springfield-Branson National Airport (SGF)
2020-01-16 01:52:00 32 88 29.0 2021-01-15 18:54:53.841352 Springfield-Branson National Airport (SGF)
2020-01-16 02:52:00 30 88 27.0 2021-01-15 18:54:53.841352 Springfield-Branson National Airport (SGF)
2020-01-16 03:52:00 27 89 24.0 2021-01-15 18:54:53.841352 Springfield-Branson National Airport (SGF)
2020-01-16 04:52:00 27 89 24.0 2021-01-15 18:54:53.841352 Springfield-Branson National Airport (SGF)
2020-01-16 05:52:00 27 89 24.0 2021-01-15 18:54:53.841352 Springfield-Branson National Airport (SGF)
2020-01-16 06:52:00 25 88 22.0 2021-01-15 18:54:53.841352 Springfield-Branson National Airport (SGF)
2020-01-16 07:52:00 26 88 23.0 2021-01-15 18:54:53.841352 Springfield-Branson National Airport (SGF)
2020-01-16 08:52:00 27 85 23.0 2021-01-15 18:54:53.841352 Springfield-Branson National Airport (SGF)
2020-01-16 09:52:00 29 82 24.0 2021-01-15 18:54:53.841352 Springfield-Branson National Airport (SGF)
2020-01-16 10:52:00 31 76 24.0 2021-01-15 18:54:53.841352 Springfield-Branson National Airport (SGF)
2020-01-16 11:52:00 34 64 23.0 2021-01-15 18:54:53.841352 Springfield-Branson National Airport (SGF)
2020-01-16 12:52:00 35 61 23.0 2021-01-15 18:54:53.841352 Springfield-Branson National Airport (SGF)
2020-01-16 13:52:00 36 57 22.0 2021-01-15 18:54:53.841352 Springfield-Branson National Airport (SGF)
2020-01-16 14:52:00 38 52 22.0 2021-01-15 18:54:53.841352 Springfield-Branson National Airport (SGF)
2020-01-16 15:52:00 37 52 21.0 2021-01-15 18:54:53.841352 Springfield-Branson National Airport (SGF)
2020-01-16 16:52:00 37 52 21.0 2021-01-15 18:54:53.841352 Springfield-Branson National Airport (SGF)
2020-01-16 17:52:00 36 57 22.0 2021-01-15 18:54:53.841352 Springfield-Branson National Airport (SGF)
2020-01-16 18:52:00 36 55 21.0 2021-01-15 18:54:53.841352 Springfield-Branson National Airport (SGF)
2020-01-16 19:52:00 36 50 19.0 2021-01-15 18:54:53.841352 Springfield-Branson National Airport (SGF)
2020-01-16 20:52:00 36 48 18.0 2021-01-15 18:54:53.841352 Springfield-Branson National Airport (SGF)
2020-01-16 21:52:00 35 54 20.0 2021-01-15 18:54:53.841352 Springfield-Branson National Airport (SGF)
2020-01-16 22:52:00 36 46 17.0 2021-01-15 18:54:53.841352 Springfield-Branson National Airport (SGF)
2020-01-16 23:52:00 36 44 16.0 2021-01-15 18:54:53.841352 Springfield-Branson National Airport (SGF)

A total of 24 rows are displayed.